sensor_id;sensor_type;location;lat;lon;timestamp;pressure;altitude;pressure_sealevel;temperature;humidity
50790;BME280;37287;47.554;7.844;2023-02-18T00:01:37;99150.88;;;9.29;100.00
50790;BME280;37287;47.554;7.844;2023-02-18T00:04:06;99152.91;;;9.32;100.00
50790;BME280;37287;47.554;7.844;2023-02-18T00:06:34;99146.38;;;9.33;100.00
50790;BME280;37287;47.554;7.844;2023-02-18T00:09:02;99142.19;;;9.36;100.00
50790;BME280;37287;47.554;7.844;2023-02-18T00:11:33;99136.78;;;9.36;100.00
50790;BME280;37287;47.554;7.844;2023-02-18T00:14:01;99133.75;;;9.37;100.00
50790;BME280;37287;47.554;7.844;2023-02-18T00:16:31;99135.00;;;9.40;100.00
50790;BME280;37287;47.554;7.844;2023-02-18T00:19:04;99128.47;;;9.41;100.00
50790;BME280;37287;47.554;7.844;2023-02-18T00:21:32;99127.00;;;9.43;100.00
50790;BME280;37287;47.554;7.844;2023-02-18T00:23:59;99128.69;;;9.48;100.00
50790;BME280;37287;47.554;7.844;2023-02-18T00:26:26;99129.94;;;9.51;100.00
50790;BME280;37287;47.554;7.844;2023-02-18T00:28:53;99123.41;;;9.52;100.00
50790;BME280;37287;47.554;7.844;2023-02-18T00:31:28;99120.81;;;9.55;100.00
50790;BME280;37287;47.554;7.844;2023-02-18T00:33:57;99128.13;;;9.55;100.00
50790;BME280;37287;47.554;7.844;2023-02-18T00:36:25;99128.91;;;9.55;100.00
50790;BME280;37287;47.554;7.844;2023-02-18T00:38:56;99125.88;;;9.57;100.00
50790;BME280;37287;47.554;7.844;2023-02-18T00:41:27;99125.88;;;9.57;100.00
50790;BME280;37287;47.554;7.844;2023-02-18T00:43:54;99117.75;;;9.57;100.00
50790;BME280;37287;47.554;7.844;2023-02-18T00:46:22;99122.06;;;9.58;100.00
50790;BME280;37287;47.554;7.844;2023-02-18T00:48:49;99109.66;;;9.57;100.00
50790;BME280;37287;47.554;7.844;2023-02-18T00:51:16;99120.47;;;9.57;100.00
50790;BME280;37287;47.554;7.844;2023-02-18T00:53:45;99117.75;;;9.57;100.00
50790;BME280;37287;47.554;7.844;2023-02-18T00:56:16;99127.78;;;9.56;100.00
50790;BME280;37287;47.554;7.844;2023-02-18T00:58:43;99120.81;;;9.55;100.00
50790;BME280;37287;47.554;7.844;2023-02-18T01:01:10;99124.31;;;9.56;100.00
50790;BME280;37287;47.554;7.844;2023-02-18T01:03:39;99114.63;;;9.55;100.00
50790;BME280;37287;47.554;7.844;2023-02-18T01:06:09;99111.09;;;9.54;100.00
50790;BME280;37287;47.554;7.844;2023-02-18T01:08:37;99109.22;;;9.55;100.00
50790;BME280;37287;47.554;7.844;2023-02-18T01:11:08;99111.09;;;9.54;100.00
50790;BME280;37287;47.554;7.844;2023-02-18T01:13:35;99109.22;;;9.55;100.00
50790;BME280;37287;47.554;7.844;2023-02-18T01:16:02;99107.28;;;9.55;100.00
50790;BME280;37287;47.554;7.844;2023-02-18T01:18:29;99106.50;;;9.55;100.00
50790;BME280;37287;47.554;7.844;2023-02-18T01:20:56;99105.69;;;9.54;100.00
50790;BME280;37287;47.554;7.844;2023-02-18T01:23:22;99099.97;;;9.56;100.00
50790;BME280;37287;47.554;7.844;2023-02-18T01:25:49;99089.47;;;9.54;100.00
50790;BME280;37287;47.554;7.844;2023-02-18T01:28:17;99092.19;;;9.54;100.00
50790;BME280;37287;47.554;7.844;2023-02-18T01:30:44;99088.69;;;9.54;100.00
50790;BME280;37287;47.554;7.844;2023-02-18T01:33:20;99084.88;;;9.55;100.00
50790;BME280;37287;47.554;7.844;2023-02-18T01:35:47;99084.88;;;9.55;100.00
50790;BME280;37287;47.554;7.844;2023-02-18T01:38:15;99075.53;;;9.52;100.00
50790;BME280;37287;47.554;7.844;2023-02-18T01:40:46;99081.72;;;9.53;100.00
50790;BME280;37287;47.554;7.844;2023-02-18T01:43:14;99080.94;;;9.52;100.00
50790;BME280;37287;47.554;7.844;2023-02-18T01:48:26;99089.47;;;9.54;100.00
50790;BME280;37287;47.554;7.844;2023-02-18T01:50:59;99079.47;;;9.55;100.00
50790;BME280;37287;47.554;7.844;2023-02-18T01:53:32;99067.06;;;9.54;100.00
50790;BME280;37287;47.554;7.844;2023-02-18T01:56:04;99075.66;;;9.56;100.00
50790;BME280;37287;47.554;7.844;2023-02-18T01:58:32;99070.56;;;9.54;100.00
50790;BME280;37287;47.554;7.844;2023-02-18T02:09:12;99069.09;;;9.57;100.00
50790;BME280;37287;47.554;7.844;2023-02-18T02:24:05;99059.66;;;9.51;100.00
50790;BME280;37287;47.554;7.844;2023-02-18T02:32:30;99039.81;;;9.46;100.00
50790;BME280;37287;47.554;7.844;2023-02-18T02:35:21;99043.66;;;9.45;100.00
50790;BME280;37287;47.554;7.844;2023-02-18T02:37:54;99043.66;;;9.45;100.00
50790;BME280;37287;47.554;7.844;2023-02-18T02:45:54;99036.69;;;9.44;100.00
50790;BME280;37287;47.554;7.844;2023-02-18T02:51:35;99024.28;;;9.43;100.00
50790;BME280;37287;47.554;7.844;2023-02-18T02:54:18;99022.72;;;9.42;100.00
50790;BME280;37287;47.554;7.844;2023-02-18T02:56:49;99026.53;;;9.41;100.00
50790;BME280;37287;47.554;7.844;2023-02-18T02:59:22;99028.00;;;9.39;100.00
50790;BME280;37287;47.554;7.844;2023-02-18T03:07:25;99023.25;;;9.36;100.00
50790;BME280;37287;47.554;7.844;2023-02-18T03:17:54;99026.31;;;9.34;100.00
50790;BME280;37287;47.554;7.844;2023-02-18T03:20:28;99019.78;;;9.35;100.00
50790;BME280;37287;47.554;7.844;2023-02-18T03:22:59;99022.50;;;9.35;100.00
50790;BME280;37287;47.554;7.844;2023-02-18T03:25:31;99028.66;;;9.36;100.00
50790;BME280;37287;47.554;7.844;2023-02-18T03:28:04;99027.91;;;9.35;100.00
50790;BME280;37287;47.554;7.844;2023-02-18T03:30:40;99031.03;;;9.37;100.00
50790;BME280;37287;47.554;7.844;2023-02-18T03:33:09;99024.84;;;9.37;100.00
50790;BME280;37287;47.554;7.844;2023-02-18T03:35:41;99013.69;;;9.38;100.00
50790;BME280;37287;47.554;7.844;2023-02-18T03:38:16;99016.06;;;9.40;100.00
50790;BME280;37287;47.554;7.844;2023-02-18T03:40:47;99005.72;;;9.42;100.00
50790;BME280;37287;47.554;7.844;2023-02-18T03:43:16;99006.50;;;9.42;100.00
50790;BME280;37287;47.554;7.844;2023-02-18T03:45:43;99000.75;;;9.44;100.00
50790;BME280;37287;47.554;7.844;2023-02-18T03:48:10;99003.91;;;9.46;100.00
50790;BME280;37287;47.554;7.844;2023-02-18T03:50:36;99008.50;;;9.45;100.00
50790;BME280;37287;47.554;7.844;2023-02-18T03:53:03;99017.06;;;9.48;100.00
50790;BME280;37287;47.554;7.844;2023-02-18T03:55:34;99010.53;;;9.49;100.00
50790;BME280;37287;47.554;7.844;2023-02-18T03:58:00;99001.75;;;9.52;100.00
50790;BME280;37287;47.554;7.844;2023-02-18T04:00:27;98991.72;;;9.52;100.00
50790;BME280;37287;47.554;7.844;2023-02-18T04:02:57;99003.78;;;9.55;100.00
50790;BME280;37287;47.554;7.844;2023-02-18T04:05:26;98991.84;;;9.56;100.00
50790;BME280;37287;47.554;7.844;2023-02-18T04:07:53;99004.22;;;9.57;100.00
50790;BME280;37287;47.554;7.844;2023-02-18T04:10:20;99001.50;;;9.57;100.00
50790;BME280;37287;47.554;7.844;2023-02-18T04:12:50;98999.25;;;9.59;100.00
50790;BME280;37287;47.554;7.844;2023-02-18T04:15:17;99002.06;;;9.62;100.00
50790;BME280;37287;47.554;7.844;2023-02-18T04:17:43;98996.66;;;9.62;100.00
50790;BME280;37287;47.554;7.844;2023-02-18T04:20:10;99001.72;;;9.64;100.00
50790;BME280;37287;47.554;7.844;2023-02-18T04:22:37;98998.22;;;9.63;100.00
50790;BME280;37287;47.554;7.844;2023-02-18T04:25:07;99007.13;;;9.64;100.00
50790;BME280;37287;47.554;7.844;2023-02-18T04:27:34;99002.19;;;9.66;100.00
50790;BME280;37287;47.554;7.844;2023-02-18T04:30:02;99000.59;;;9.65;100.00
50790;BME280;37287;47.554;7.844;2023-02-18T04:32:30;98997.88;;;9.65;100.00
50790;BME280;37287;47.554;7.844;2023-02-18T04:34:57;99004.06;;;9.66;100.00
50790;BME280;37287;47.554;7.844;2023-02-18T04:37:24;99002.53;;;9.64;100.00
50790;BME280;37287;47.554;7.844;2023-02-18T04:39:57;99007.59;;;9.66;100.00
50790;BME280;37287;47.554;7.844;2023-02-18T04:42:23;99006.78;;;9.66;100.00
50790;BME280;37287;47.554;7.844;2023-02-18T04:44:50;99005.66;;;9.67;100.00
50790;BME280;37287;47.554;7.844;2023-02-18T04:47:23;98999.47;;;9.66;100.00
50790;BME280;37287;47.554;7.844;2023-02-18T04:49:49;99013.78;;;9.67;100.00
50790;BME280;37287;47.554;7.844;2023-02-18T04:52:19;99010.28;;;9.66;100.00
50790;BME280;37287;47.554;7.844;2023-02-18T04:54:52;99013.44;;;9.68;100.00
50790;BME280;37287;47.554;7.844;2023-02-18T04:57:18;99004.19;;;9.69;100.00
50790;BME280;37287;47.554;7.844;2023-02-18T04:59:45;99011.19;;;9.70;100.00
50790;BME280;37287;47.554;7.844;2023-02-18T05:02:14;99012.31;;;9.69;100.00
50790;BME280;37287;47.554;7.844;2023-02-18T05:04:40;99008.03;;;9.68;100.00
50790;BME280;37287;47.554;7.844;2023-02-18T05:07:07;99008.03;;;9.68;100.00
50790;BME280;37287;47.554;7.844;2023-02-18T05:09:35;99007.25;;;9.68;100.00
50790;BME280;37287;47.554;7.844;2023-02-18T05:12:02;99010.72;;;9.68;100.00
50790;BME280;37287;47.554;7.844;2023-02-18T05:14:28;99008.81;;;9.69;100.00
50790;BME280;37287;47.554;7.844;2023-02-18T05:17:01;99012.66;;;9.68;100.00
50790;BME280;37287;47.554;7.844;2023-02-18T05:19:28;99006.47;;;9.67;100.00
50790;BME280;37287;47.554;7.844;2023-02-18T05:22:01;99008.03;;;9.68;100.00
50790;BME280;37287;47.554;7.844;2023-02-18T05:24:29;99008.03;;;9.68;100.00
50790;BME280;37287;47.554;7.844;2023-02-18T05:26:56;99003.41;;;9.69;100.00
50790;BME280;37287;47.554;7.844;2023-02-18T05:29:22;98998.34;;;9.67;100.00
50790;BME280;37287;47.554;7.844;2023-02-18T05:31:51;98995.66;;;9.67;100.00
50790;BME280;37287;47.554;7.844;2023-02-18T05:34:20;98992.94;;;9.67;100.00
50790;BME280;37287;47.554;7.844;2023-02-18T05:36:46;98991.38;;;9.66;100.00
50790;BME280;37287;47.554;7.844;2023-02-18T05:39:13;98989.78;;;9.65;100.00
50790;BME280;37287;47.554;7.844;2023-02-18T05:41:40;98992.47;;;9.65;100.00
50790;BME280;37287;47.554;7.844;2023-02-18T05:44:06;98993.25;;;9.66;100.00
50790;BME280;37287;47.554;7.844;2023-02-18T05:46:53;98988.53;;;9.62;100.00
50790;BME280;37287;47.554;7.844;2023-02-18T05:49:22;98993.94;;;9.62;100.00
50790;BME280;37287;47.554;7.844;2023-02-18T05:51:49;98998.56;;;9.62;100.00
50790;BME280;37287;47.554;7.844;2023-02-18T05:54:17;98988.09;;;9.60;100.00
50790;BME280;37287;47.554;7.844;2023-02-18T05:56:44;98990.81;;;9.60;100.00
50790;BME280;37287;47.554;7.844;2023-02-18T05:59:10;98988.88;;;9.61;100.00
50790;BME280;37287;47.554;7.844;2023-02-18T06:01:37;98991.59;;;9.61;100.00
50790;BME280;37287;47.554;7.844;2023-02-18T06:04:04;98994.28;;;9.61;100.00
50790;BME280;37287;47.554;7.844;2023-02-18T06:06:31;98985.41;;;9.60;100.00
50790;BME280;37287;47.554;7.844;2023-02-18T06:08:57;98993.16;;;9.62;100.00
50790;BME280;37287;47.554;7.844;2023-02-18T06:11:26;98989.34;;;9.63;100.00
50790;BME280;37287;47.554;7.844;2023-02-18T06:13:55;98990.91;;;9.64;100.00
50790;BME280;37287;47.554;7.844;2023-02-18T06:16:21;98989.34;;;9.63;100.00
50790;BME280;37287;47.554;7.844;2023-02-18T06:18:48;98988.53;;;9.62;100.00
50790;BME280;37287;47.554;7.844;2023-02-18T06:21:17;98981.56;;;9.61;100.00
50790;BME280;37287;47.554;7.844;2023-02-18T06:23:46;98984.28;;;9.61;100.00
50790;BME280;37287;47.554;7.844;2023-02-18T06:26:12;98983.03;;;9.59;100.00
50790;BME280;37287;47.554;7.844;2023-02-18T06:28:39;98985.75;;;9.59;100.00
50790;BME280;37287;47.554;7.844;2023-02-18T06:31:06;98991.16;;;9.59;100.00
50790;BME280;37287;47.554;7.844;2023-02-18T06:33:34;98990.00;;;9.60;100.00
50790;BME280;37287;47.554;7.844;2023-02-18T06:36:05;98990.00;;;9.60;100.00
50790;BME280;37287;47.554;7.844;2023-02-18T06:38:39;98984.59;;;9.60;100.00
50790;BME280;37287;47.554;7.844;2023-02-18T06:41:06;98990.81;;;9.60;100.00
50790;BME280;37287;47.554;7.844;2023-02-18T06:43:33;98990.00;;;9.60;100.00
50790;BME280;37287;47.554;7.844;2023-02-18T06:46:03;98985.75;;;9.59;100.00
50790;BME280;37287;47.554;7.844;2023-02-18T06:48:30;98986.88;;;9.58;100.00
50790;BME280;37287;47.554;7.844;2023-02-18T06:50:57;98985.28;;;9.57;100.00
50790;BME280;37287;47.554;7.844;2023-02-18T06:53:26;98991.50;;;9.57;100.00
50790;BME280;37287;47.554;7.844;2023-02-18T06:55:52;98983.03;;;9.59;100.00
50790;BME280;37287;47.554;7.844;2023-02-18T06:58:19;98981.88;;;9.60;100.00
50790;BME280;37287;47.554;7.844;2023-02-18T07:00:46;98984.59;;;9.60;100.00
50790;BME280;37287;47.554;7.844;2023-02-18T07:03:13;98980.78;;;9.61;100.00
50790;BME280;37287;47.554;7.844;2023-02-18T07:05:40;98981.22;;;9.63;100.00
50790;BME280;37287;47.554;7.844;2023-02-18T07:08:08;98985.94;;;9.66;100.00
50790;BME280;37287;47.554;7.844;2023-02-18T07:10:35;98982.13;;;9.67;100.00
50790;BME280;37287;47.554;7.844;2023-02-18T07:13:02;98987.97;;;9.69;100.00
50790;BME280;37287;47.554;7.844;2023-02-18T07:15:29;98978.72;;;9.70;100.00
50790;BME280;37287;47.554;7.844;2023-02-18T07:17:55;98980.28;;;9.71;100.00
50790;BME280;37287;47.554;7.844;2023-02-18T07:20:22;98985.81;;;9.75;100.00
50790;BME280;37287;47.554;7.844;2023-02-18T07:22:50;98983.53;;;9.77;100.00
50790;BME280;37287;47.554;7.844;2023-02-18T07:25:17;98987.47;;;9.79;100.00
50790;BME280;37287;47.554;7.844;2023-02-18T07:27:44;98986.00;;;9.82;100.00
50790;BME280;37287;47.554;7.844;2023-02-18T07:30:13;98984.53;;;9.85;100.00
50790;BME280;37287;47.554;7.844;2023-02-18T07:32:39;98983.84;;;9.88;100.00
50790;BME280;37287;47.554;7.844;2023-02-18T07:35:06;98988.56;;;9.91;100.00
50790;BME280;37287;47.554;7.844;2023-02-18T07:37:33;98988.69;;;9.94;100.00
50790;BME280;37287;47.554;7.844;2023-02-18T07:39:59;98979.88;;;9.97;100.00
50790;BME280;37287;47.554;7.844;2023-02-18T07:42:26;98981.13;;;10.00;100.00
50790;BME280;37287;47.554;7.844;2023-02-18T07:44:54;98988.53;;;10.03;100.00
50790;BME280;37287;47.554;7.844;2023-02-18T07:47:21;98982.88;;;10.08;100.00
50790;BME280;37287;47.554;7.844;2023-02-18T07:49:48;98980.72;;;10.14;100.00
50790;BME280;37287;47.554;7.844;2023-02-18T07:52:16;98990.50;;;10.19;100.00
50790;BME280;37287;47.554;7.844;2023-02-18T07:54:43;98990.16;;;10.20;100.00
50790;BME280;37287;47.554;7.844;2023-02-18T07:57:09;98990.16;;;10.20;100.00
50790;BME280;37287;47.554;7.844;2023-02-18T07:59:36;98995.69;;;10.24;100.00
50790;BME280;37287;47.554;7.844;2023-02-18T08:02:03;98999.16;;;10.24;100.00
50790;BME280;37287;47.554;7.844;2023-02-18T08:04:31;98998.81;;;10.26;100.00
50790;BME280;37287;47.554;7.844;2023-02-18T08:06:57;98994.53;;;10.25;100.00
50790;BME280;37287;47.554;7.844;2023-02-18T08:09:24;98994.97;;;10.27;100.00
50790;BME280;37287;47.554;7.844;2023-02-18T08:11:50;98997.00;;;10.30;100.00
50790;BME280;37287;47.554;7.844;2023-02-18T08:14:19;98999.00;;;10.33;100.00
50790;BME280;37287;47.554;7.844;2023-02-18T08:16:45;98996.44;;;10.37;100.00
50790;BME280;37287;47.554;7.844;2023-02-18T08:19:12;98989.53;;;10.39;100.00
50790;BME280;37287;47.554;7.844;2023-02-18T08:21:40;98990.84;;;10.45;100.00
50790;BME280;37287;47.554;7.844;2023-02-18T08:24:06;98989.03;;;10.49;100.00
50790;BME280;37287;47.554;7.844;2023-02-18T08:26:35;98989.56;;;10.55;100.00
50790;BME280;37287;47.554;7.844;2023-02-18T08:29:25;98986.59;;;10.60;100.00
50790;BME280;37287;47.554;7.844;2023-02-18T08:31:52;98983.28;;;10.67;100.00
50790;BME280;37287;47.554;7.844;2023-02-18T08:34:20;98985.72;;;10.72;100.00
50790;BME280;37287;47.554;7.844;2023-02-18T08:36:47;98985.03;;;10.75;100.00
50790;BME280;37287;47.554;7.844;2023-02-18T08:39:13;98982.78;;;10.77;100.00
50790;BME280;37287;47.554;7.844;2023-02-18T08:41:40;98988.63;;;10.79;100.00
50790;BME280;37287;47.554;7.844;2023-02-18T08:44:06;98978.66;;;10.83;100.00
50790;BME280;37287;47.554;7.844;2023-02-18T08:46:33;98988.44;;;10.88;100.00
50790;BME280;37287;47.554;7.844;2023-02-18T08:49:02;98981.19;;;10.92;100.00
50790;BME280;37287;47.554;7.844;2023-02-18T08:51:29;98974.69;;;10.97;100.00
50790;BME280;37287;47.554;7.844;2023-02-18T08:53:56;98985.19;;;10.98;98.65
50790;BME280;37287;47.554;7.844;2023-02-18T08:56:27;98980.28;;;11.04;97.94
50790;BME280;37287;47.554;7.844;2023-02-18T08:58:57;98980.81;;;11.10;97.18
50790;BME280;37287;47.554;7.844;2023-02-18T09:01:24;98981.69;;;11.14;96.52
50790;BME280;37287;47.554;7.844;2023-02-18T09:03:51;98964.38;;;11.18;96.36
50790;BME280;37287;47.554;7.844;2023-02-18T09:06:17;98971.09;;;11.25;96.40
50790;BME280;37287;47.554;7.844;2023-02-18T09:08:44;98976.25;;;11.30;94.77
50790;BME280;37287;47.554;7.844;2023-02-18T09:11:18;98969.75;;;11.34;94.24
50790;BME280;37287;47.554;7.844;2023-02-18T09:13:45;98969.16;;;11.41;94.20
50790;BME280;37287;47.554;7.844;2023-02-18T09:16:16;98971.13;;;11.44;93.99
50790;BME280;37287;47.554;7.844;2023-02-18T09:18:46;98973.50;;;11.46;92.88
50790;BME280;37287;47.554;7.844;2023-02-18T09:21:16;98974.72;;;11.48;93.32
50790;BME280;37287;47.554;7.844;2023-02-18T09:23:46;98973.22;;;11.51;93.27
50790;BME280;37287;47.554;7.844;2023-02-18T09:26:16;98971.03;;;11.57;92.26
50790;BME280;37287;47.554;7.844;2023-02-18T09:28:43;98977.38;;;11.64;92.23
50790;BME280;37287;47.554;7.844;2023-02-18T09:31:13;98982.94;;;11.72;92.66
50790;BME280;37287;47.554;7.844;2023-02-18T09:33:46;98974.88;;;11.75;91.88
50790;BME280;37287;47.554;7.844;2023-02-18T09:36:15;98980.72;;;11.77;92.13
50790;BME280;37287;47.554;7.844;2023-02-18T09:38:42;98980.47;;;11.82;92.03
50790;BME280;37287;47.554;7.844;2023-02-18T09:41:17;98970.38;;;11.83;91.12
50790;BME280;37287;47.554;7.844;2023-02-18T09:43:52;98966.25;;;11.89;91.16
50790;BME280;37287;47.554;7.844;2023-02-18T09:48:51;98975.00;;;11.98;90.19
50790;BME280;37287;47.554;7.844;2023-02-18T09:51:18;98970.84;;;12.04;89.84
50790;BME280;37287;47.554;7.844;2023-02-18T09:53:45;98972.13;;;12.11;89.46
50790;BME280;37287;47.554;7.844;2023-02-18T09:56:21;98974.91;;;12.14;89.44
50790;BME280;37287;47.554;7.844;2023-02-18T09:58:51;98980.03;;;12.19;88.66
50790;BME280;37287;47.554;7.844;2023-02-18T10:01:31;98984.75;;;12.23;86.72
50790;BME280;37287;47.554;7.844;2023-02-18T10:04:06;98978.81;;;12.36;87.53
50790;BME280;37287;47.554;7.844;2023-02-18T10:06:35;98987.94;;;12.48;87.08
50790;BME280;37287;47.554;7.844;2023-02-18T10:09:10;98988.63;;;12.64;86.33
50790;BME280;37287;47.554;7.844;2023-02-18T10:11:41;98990.06;;;12.81;85.63
50790;BME280;37287;47.554;7.844;2023-02-18T10:14:11;98987.88;;;12.90;85.38
50790;BME280;37287;47.554;7.844;2023-02-18T10:16:39;98982.69;;;12.82;83.83
50790;BME280;37287;47.554;7.844;2023-02-18T10:19:20;98988.94;;;12.82;84.20
50790;BME280;37287;47.554;7.844;2023-02-18T10:21:54;98984.25;;;12.83;83.46
50790;BME280;37287;47.554;7.844;2023-02-18T10:26:57;98995.66;;;12.92;84.28
50790;BME280;37287;47.554;7.844;2023-02-18T10:29:24;98988.13;;;12.82;83.12
50790;BME280;37287;47.554;7.844;2023-02-18T10:32:15;98984.63;;;12.81;83.78
50790;BME280;37287;47.554;7.844;2023-02-18T10:37:23;98990.59;;;12.67;83.91
50790;BME280;37287;47.554;7.844;2023-02-18T10:51:17;98988.06;;;12.55;85.58
50790;BME280;37287;47.554;7.844;2023-02-18T10:53:45;98993.06;;;12.53;85.31
50790;BME280;37287;47.554;7.844;2023-02-18T10:56:40;98994.94;;;12.49;85.63
50790;BME280;37287;47.554;7.844;2023-02-18T11:01:41;98987.44;;;12.42;85.48
50790;BME280;37287;47.554;7.844;2023-02-18T11:04:19;98986.19;;;12.36;85.49
50790;BME280;37287;47.554;7.844;2023-02-18T11:06:50;98980.38;;;12.37;85.71
50790;BME280;37287;47.554;7.844;2023-02-18T11:09:28;98968.31;;;12.35;85.49
50790;BME280;37287;47.554;7.844;2023-02-18T11:12:02;98970.28;;;12.38;85.70
50790;BME280;37287;47.554;7.844;2023-02-18T11:14:37;98964.25;;;12.48;85.58
50790;BME280;37287;47.554;7.844;2023-02-18T11:17:26;98952.56;;;12.67;84.86
50790;BME280;37287;47.554;7.844;2023-02-18T11:19:57;98944.94;;;12.77;83.26
50790;BME280;37287;47.554;7.844;2023-02-18T11:22:28;98939.38;;;12.93;82.67
50790;BME280;37287;47.554;7.844;2023-02-18T11:24:58;98937.91;;;12.99;82.37
50790;BME280;37287;47.554;7.844;2023-02-18T11:33:03;98935.03;;;13.41;80.06
50790;BME280;37287;47.554;7.844;2023-02-18T11:35:34;98916.06;;;13.45;80.68
50790;BME280;37287;47.554;7.844;2023-02-18T11:38:02;98916.16;;;13.52;80.33
50790;BME280;37287;47.554;7.844;2023-02-18T11:40:32;98913.66;;;13.70;79.11
50790;BME280;37287;47.554;7.844;2023-02-18T11:43:14;98904.22;;;13.98;75.42
50790;BME280;37287;47.554;7.844;2023-02-18T11:45:41;98902.69;;;14.01;76.50
50790;BME280;37287;47.554;7.844;2023-02-18T11:48:22;98894.00;;;14.25;75.91
50790;BME280;37287;47.554;7.844;2023-02-18T11:50:50;98892.31;;;14.55;75.40
50790;BME280;37287;47.554;7.844;2023-02-18T11:53:35;98887.38;;;14.68;70.97
50790;BME280;37287;47.554;7.844;2023-02-18T11:56:04;98897.47;;;14.64;73.30
50790;BME280;37287;47.554;7.844;2023-02-18T11:58:42;98882.31;;;14.70;72.82
50790;BME280;37287;47.554;7.844;2023-02-18T12:01:45;98890.97;;;14.79;70.59
50790;BME280;37287;47.554;7.844;2023-02-18T12:04:25;98878.88;;;14.80;72.70
50790;BME280;37287;47.554;7.844;2023-02-18T12:09:51;98871.91;;;14.83;71.93
50790;BME280;37287;47.554;7.844;2023-02-18T12:12:31;98870.84;;;15.02;69.68
50790;BME280;37287;47.554;7.844;2023-02-18T12:15:03;98873.63;;;15.09;71.13
50790;BME280;37287;47.554;7.844;2023-02-18T12:17:43;98872.53;;;15.28;71.22
50790;BME280;37287;47.554;7.844;2023-02-18T12:23:37;98870.19;;;15.26;69.69
50790;BME280;37287;47.554;7.844;2023-02-18T12:26:33;98865.19;;;15.46;69.00
50790;BME280;37287;47.554;7.844;2023-02-18T12:31:43;98850.22;;;15.08;68.04
50790;BME280;37287;47.554;7.844;2023-02-18T12:53:43;98843.91;;;14.89;69.12
50790;BME280;37287;47.554;7.844;2023-02-18T12:59:34;98841.44;;;14.66;66.75
50790;BME280;37287;47.554;7.844;2023-02-18T13:05:24;98836.34;;;14.65;70.92
50790;BME280;37287;47.554;7.844;2023-02-18T13:11:08;98836.19;;;14.47;68.77
50790;BME280;37287;47.554;7.844;2023-02-18T13:13:59;98825.34;;;14.57;68.78
50790;BME280;37287;47.554;7.844;2023-02-18T13:16:30;98829.59;;;14.51;69.66
50790;BME280;37287;47.554;7.844;2023-02-18T13:19:17;98824.19;;;14.55;70.34
50790;BME280;37287;47.554;7.844;2023-02-18T13:21:48;98815.22;;;14.54;70.86
50790;BME280;37287;47.554;7.844;2023-02-18T13:24:25;98818.31;;;14.49;70.44
50790;BME280;37287;47.554;7.844;2023-02-18T13:27:02;98811.34;;;14.59;70.86
50790;BME280;37287;47.554;7.844;2023-02-18T13:29:43;98793.84;;;14.56;68.03
50790;BME280;37287;47.554;7.844;2023-02-18T13:32:25;98797.94;;;14.32;68.14
50790;BME280;37287;47.554;7.844;2023-02-18T13:40:45;98782.72;;;14.83;68.01
50790;BME280;37287;47.554;7.844;2023-02-18T13:48:42;98775.78;;;15.04;67.75
50790;BME280;37287;47.554;7.844;2023-02-18T13:51:12;98767.91;;;14.84;65.14
50790;BME280;37287;47.554;7.844;2023-02-18T13:53:43;98779.66;;;14.92;67.30
50790;BME280;37287;47.554;7.844;2023-02-18T13:56:20;98769.16;;;15.01;66.82
50790;BME280;37287;47.554;7.844;2023-02-18T13:59:11;98773.50;;;15.13;66.98
50790;BME280;37287;47.554;7.844;2023-02-18T14:01:47;98771.84;;;14.94;64.19
50790;BME280;37287;47.554;7.844;2023-02-18T14:10:03;98756.22;;;14.80;65.15
50790;BME280;37287;47.554;7.844;2023-02-18T14:23:37;98749.91;;;14.69;68.53
50790;BME280;37287;47.554;7.844;2023-02-18T14:26:17;98742.13;;;14.67;68.53
50790;BME280;37287;47.554;7.844;2023-02-18T14:40:31;98733.38;;;14.40;70.11
50790;BME280;37287;47.554;7.844;2023-02-18T14:51:26;98717.81;;;14.37;71.07
50790;BME280;37287;47.554;7.844;2023-02-18T14:53:54;98715.91;;;14.41;72.09
50790;BME280;37287;47.554;7.844;2023-02-18T14:56:23;98715.84;;;14.37;71.62
50790;BME280;37287;47.554;7.844;2023-02-18T14:58:56;98713.13;;;14.34;71.35
50790;BME280;37287;47.554;7.844;2023-02-18T15:01:31;98717.00;;;14.33;71.38
50790;BME280;37287;47.554;7.844;2023-02-18T15:04:00;98707.66;;;14.30;71.81
50790;BME280;37287;47.554;7.844;2023-02-18T15:09:02;98714.94;;;14.15;72.11
50790;BME280;37287;47.554;7.844;2023-02-18T15:11:45;98718.03;;;14.10;71.88
50790;BME280;37287;47.554;7.844;2023-02-18T15:14:17;98715.69;;;14.08;72.46
50790;BME280;37287;47.554;7.844;2023-02-18T15:16:45;98716.78;;;14.04;72.30
50790;BME280;37287;47.554;7.844;2023-02-18T15:19:15;98728.44;;;13.97;71.88
50790;BME280;37287;47.554;7.844;2023-02-18T15:21:49;98717.88;;;13.92;72.73
50790;BME280;37287;47.554;7.844;2023-02-18T15:24:35;98716.69;;;13.86;72.68
50790;BME280;37287;47.554;7.844;2023-02-18T15:27:19;98713.53;;;13.80;72.57
50790;BME280;37287;47.554;7.844;2023-02-18T15:30:29;98716.59;;;13.75;71.91
50790;BME280;37287;47.554;7.844;2023-02-18T15:32:58;98716.53;;;13.68;72.74
50790;BME280;37287;47.554;7.844;2023-02-18T15:35:28;98707.94;;;13.62;73.05
50790;BME280;37287;47.554;7.844;2023-02-18T15:37:57;98710.22;;;13.56;73.55
50790;BME280;37287;47.554;7.844;2023-02-18T15:40:34;98708.19;;;13.46;73.46
50790;BME280;37287;47.554;7.844;2023-02-18T15:43:03;98705.75;;;13.37;74.03
50790;BME280;37287;47.554;7.844;2023-02-18T15:45:38;98703.66;;;13.27;74.55
50790;BME280;37287;47.554;7.844;2023-02-18T15:48:20;98710.63;;;13.21;74.76
50790;BME280;37287;47.554;7.844;2023-02-18T15:50:53;98712.88;;;13.15;75.46
50790;BME280;37287;47.554;7.844;2023-02-18T15:53:24;98708.50;;;13.07;75.76
50790;BME280;37287;47.554;7.844;2023-02-18T15:55:52;98713.50;;;13.01;76.06
50790;BME280;37287;47.554;7.844;2023-02-18T15:58:30;98710.34;;;12.96;75.83
50790;BME280;37287;47.554;7.844;2023-02-18T16:01:05;98702.50;;;12.90;76.67
50790;BME280;37287;47.554;7.844;2023-02-18T16:03:44;98696.59;;;12.81;76.08
50790;BME280;37287;47.554;7.844;2023-02-18T16:06:22;98699.63;;;12.76;76.43